createdAt,value
2019-01-27T00:00:51.940Z,72.62
2019-01-27T00:15:51.803Z,72.69
2019-01-27T00:30:51.237Z,72.78
2019-01-27T00:45:51.075Z,72.87
2019-01-27T01:00:51.005Z,72.99
2019-01-27T01:15:50.983Z,71.29
2019-01-27T01:30:51.287Z,69.88
2019-01-27T01:45:51.289Z,68.75
2019-01-27T02:00:51.185Z,70.47
2019-01-27T02:30:51.508Z,69.77
2019-01-27T02:45:51.529Z,70.24
2019-01-27T03:00:51.257Z,69.59
2019-01-27T03:15:51.335Z,69.54
2019-01-27T03:30:51.669Z,69.62
2019-01-27T03:45:52.034Z,70.25
2019-01-27T04:00:51.535Z,70.09
2019-01-27T04:15:51.477Z,69.85
2019-01-27T04:30:50.798Z,69.88
2019-01-27T04:45:51.348Z,70.00
2019-01-27T05:00:51.691Z,70.27
2019-01-27T05:15:51.560Z,69.65
2019-01-27T05:30:51.048Z,69.85
2019-01-27T05:45:51.048Z,69.88
2019-01-27T06:00:50.902Z,70.56
2019-01-27T06:15:51.787Z,69.96
2019-01-27T06:30:53.195Z,69.84
2019-01-27T06:45:51.974Z,69.93
2019-01-27T07:15:55.904Z,67.75
2019-01-27T07:30:56.307Z,68.05
2019-01-27T07:45:56.240Z,65.85
2019-01-27T08:30:55.668Z,55.58
2019-01-27T08:45:57.124Z,53.30
2019-01-27T09:00:55.942Z,53.67
2019-01-27T09:31:00.485Z,48.61
2019-01-27T10:15:57.200Z,45.73
2019-01-27T10:30:55.006Z,45.64
2019-01-27T10:45:57.928Z,46.49
2019-01-27T11:00:55.597Z,45.56
2019-01-27T11:15:55.824Z,44.67
2019-01-27T11:30:58.068Z,45.43
2019-01-27T11:45:56.551Z,45.91
2019-01-27T12:00:54.470Z,47.54
2019-01-27T12:15:52.366Z,47.41
2019-01-27T12:30:51.321Z,48.13
2019-01-27T12:45:51.191Z,48.87
2019-01-27T13:00:55.127Z,49.14
2019-01-27T13:15:50.823Z,50.39
2019-01-27T13:30:51.988Z,51.17
2019-01-27T13:45:51.418Z,51.96
2019-01-27T14:00:53.985Z,54.69
2019-01-27T14:15:52.359Z,57.37
2019-01-27T14:30:50.785Z,59.08
2019-01-27T14:45:52.694Z,61.66
2019-01-27T15:00:53.371Z,62.96
2019-01-27T15:30:53.092Z,66.29
2019-01-27T15:45:52.941Z,67.70
2019-01-27T16:00:50.925Z,69.54
2019-01-27T16:15:51.009Z,70.46
2019-01-27T16:45:59.023Z,72.08
2019-01-27T17:15:51.168Z,74.04
2019-01-27T17:30:51.555Z,74.09
2019-01-27T17:45:51.959Z,74.43
2019-01-27T18:00:57.410Z,74.87
2019-01-27T18:15:51.357Z,75.21
2019-01-27T18:30:51.742Z,75.53
2019-01-27T18:45:51.687Z,76.10
2019-01-27T20:30:56.365Z,77.32
2019-01-27T20:45:55.164Z,77.35
2019-01-27T21:15:55.934Z,76.81
2019-01-27T21:30:51.463Z,76.78
2019-01-27T21:45:51.415Z,77.04
2019-01-27T22:00:51.600Z,77.12
2019-01-27T22:15:54.657Z,77.31
2019-01-27T22:30:50.629Z,77.40
2019-01-27T22:45:51.643Z,77.24
2019-01-27T23:00:59.438Z,77.16
2019-01-27T23:15:51.559Z,76.77
2019-01-27T23:30:50.858Z,77.29
2019-01-27T23:45:50.792Z,77.14
